Time;durP1;ratioP1;P1;durP2;ratioP2;P2;SDS_P1;SDS_P2;PMS_P1;PMS_P2;Temp;Humidity;BMP_temperature;BMP_pressure;BME280_temperature;BME280_humidity;BME280_pressure;Samples;Min_cycle;Max_cycle;Signal;HPM_P1;HPM_P2
2024/03/12 00:01:34;;;;;;;6.15;4.65;;;;;;;8.02;100.00;100447.66;5132777;27;20213;-69
2024/03/12 00:04:06;;;;;;;10.57;5.63;;;;;;;8.03;100.00;100446.63;5129894;27;20551;-68
2024/03/12 00:06:37;;;;;;;5.20;3.88;;;;;;;8.16;100.00;100444.03;5131836;27;20197;-69
2024/03/12 00:09:09;;;;;;;5.05;4.57;;;;;;;8.26;100.00;100447.22;5135184;27;20312;-69
2024/03/12 00:11:39;;;;;;;10.43;4.25;;;;;;;8.23;100.00;100444.88;5125180;27;20242;-68
2024/03/12 00:14:07;;;;;;;8.20;4.30;;;;;;;8.23;100.00;100446.75;5133601;27;20194;-69
2024/03/12 00:16:40;;;;;;;5.40;4.30;;;;;;;8.37;100.00;100450.41;5132435;27;20246;-68
2024/03/12 00:19:10;;;;;;;4.22;3.83;;;;;;;8.39;100.00;100459.94;5123394;27;20716;-67
2024/03/12 00:21:39;;;;;;;3.88;3.30;;;;;;;8.33;100.00;100462.63;5137176;27;20241;-67
2024/03/12 00:24:09;;;;;;;4.32;3.90;;;;;;;8.44;100.00;100459.34;5134776;27;20182;-67
2024/03/12 00:26:38;;;;;;;7.68;4.32;;;;;;;8.32;100.00;100452.88;5133071;27;20188;-67
2024/03/12 00:29:07;;;;;;;7.00;4.18;;;;;;;8.23;100.00;100449.44;5114392;28;20266;-68
2024/03/12 00:31:38;;;;;;;6.35;5.53;;;;;;;8.19;100.00;100457.09;5129421;27;20186;-68
2024/03/12 00:34:10;;;;;;;8.55;4.90;;;;;;;8.31;100.00;100451.19;5133501;28;20260;-68
2024/03/12 00:36:41;;;;;;;4.80;4.28;;;;;;;8.19;100.00;100446.31;5103998;28;20281;-67
2024/03/12 00:39:11;;;;;;;5.20;4.43;;;;;;;8.00;100.00;100447.00;5130921;28;20710;-68
2024/03/12 00:41:40;;;;;;;7.97;4.40;;;;;;;7.79;100.00;100445.19;5129026;27;20215;-67
2024/03/12 00:44:09;;;;;;;8.93;5.25;;;;;;;7.76;100.00;100450.13;5128002;27;20269;-67
2024/03/12 00:46:38;;;;;;;6.75;4.22;;;;;;;7.52;100.00;100447.84;5133947;27;20187;-67
2024/03/12 00:49:07;;;;;;;7.35;4.72;;;;;;;7.38;100.00;100439.66;5140355;27;20221;-67
2024/03/12 00:51:36;;;;;;;8.27;4.75;;;;;;;7.23;100.00;100441.56;5125653;28;20205;-68
2024/03/12 00:54:06;;;;;;;8.27;4.63;;;;;;;6.99;100.00;100437.38;5127847;28;20189;-68
2024/03/12 00:56:36;;;;;;;6.32;5.07;;;;;;;6.79;100.00;100435.47;5129304;28;20198;-67
2024/03/12 00:59:05;;;;;;;7.45;4.88;;;;;;;6.67;100.00;100435.16;5132295;28;20214;-68
2024/03/12 01:01:34;;;;;;;6.63;4.13;;;;;;;6.50;100.00;100442.56;5130605;27;20214;-69
2024/03/12 01:04:03;;;;;;;7.47;4.00;;;;;;;6.63;100.00;100441.94;5127726;27;20192;-67
2024/03/12 01:06:34;;;;;;;6.07;3.95;;;;;;;6.52;100.00;100440.56;5128710;27;20182;-68
2024/03/12 01:09:06;;;;;;;15.65;5.05;;;;;;;6.44;100.00;100443.31;5130966;27;20213;-68
2024/03/12 01:11:37;;;;;;;8.82;4.93;;;;;;;6.44;100.00;100440.63;5136156;27;20656;-69
2024/03/12 01:14:06;;;;;;;9.25;3.72;;;;;;;6.64;100.00;100442.75;5134091;27;20216;-68
2024/03/12 01:16:35;;;;;;;8.88;5.35;;;;;;;6.48;100.00;100436.56;5130947;27;20198;-68
2024/03/12 01:19:06;;;;;;;5.60;3.55;;;;;;;6.29;100.00;100442.50;5132741;27;20210;-68
2024/03/12 01:21:35;;;;;;;5.82;4.70;;;;;;;6.25;100.00;100437.66;5133687;27;20206;-68
2024/03/12 01:24:05;;;;;;;9.18;3.97;;;;;;;6.48;100.00;100447.31;5122515;27;20225;-67
2024/03/12 01:26:35;;;;;;;7.13;4.55;;;;;;;6.27;100.00;100446.38;5133243;27;20536;-68
2024/03/12 01:29:05;;;;;;;7.72;5.50;;;;;;;6.24;100.00;100441.38;5127637;27;20211;-69
2024/03/12 01:31:34;;;;;;;12.00;4.53;;;;;;;6.30;100.00;100441.47;5131289;27;20182;-68
2024/03/12 01:34:03;;;;;;;9.57;4.53;;;;;;;6.08;100.00;100443.22;5129769;27;20273;-68
2024/03/12 01:36:35;;;;;;;12.85;5.25;;;;;;;6.01;100.00;100447.66;5131295;27;20198;-68
2024/03/12 01:39:07;;;;;;;8.27;4.22;;;;;;;5.93;100.00;100452.28;5129827;27;20718;-69
2024/03/12 01:41:41;;;;;;;7.00;4.22;;;;;;;5.89;100.00;100451.00;5138289;27;20201;-69
2024/03/12 01:44:11;;;;;;;4.57;4.05;;;;;;;5.90;100.00;100449.97;5137349;27;20189;-66
2024/03/12 01:46:40;;;;;;;10.13;5.38;;;;;;;6.07;100.00;100451.47;5138398;27;20174;-67
2024/03/12 01:49:10;;;;;;;5.10;3.08;;;;;;;5.93;100.00;100446.91;5137600;27;20206;-68
2024/03/12 01:51:39;;;;;;;7.32;4.22;;;;;;;5.94;100.00;100453.97;5132201;27;20186;-68
2024/03/12 01:54:09;;;;;;;4.72;2.95;;;;;;;5.76;100.00;100440.81;5145485;27;20206;-68
2024/03/12 01:56:39;;;;;;;6.32;4.35;;;;;;;5.84;100.00;100445.28;5139836;27;20198;-69
2024/03/12 01:59:09;;;;;;;6.20;5.25;;;;;;;5.80;100.00;100441.31;5133146;27;20274;-68
2024/03/12 02:01:37;;;;;;;3.95;3.60;;;;;;;5.67;100.00;100444.59;5128643;27;20671;-68
2024/03/12 02:04:09;;;;;;;5.55;3.05;;;;;;;5.56;100.00;100448.56;5127425;27;20306;-68
2024/03/12 02:06:38;;;;;;;6.18;2.78;;;;;;;5.56;100.00;100451.25;5135529;27;20204;-67
2024/03/12 02:09:08;;;;;;;7.65;4.68;;;;;;;5.79;100.00;100447.69;5129492;27;20205;-68
2024/03/12 02:11:40;;;;;;;7.93;4.95;;;;;;;5.77;100.00;100455.06;5134732;27;20213;-68
2024/03/12 02:14:09;;;;;;;4.57;4.13;;;;;;;5.90;100.00;100449.97;5132585;27;20276;-67
2024/03/12 02:16:38;;;;;;;4.65;3.28;;;;;;;5.81;100.00;100457.22;5126839;27;20200;-68
2024/03/12 02:19:08;;;;;;;5.22;4.07;;;;;;;5.65;100.00;100444.81;5135540;27;20206;-67
2024/03/12 02:21:37;;;;;;;4.82;3.80;;;;;;;5.84;100.00;100456.88;5134158;27;20203;-68
2024/03/12 02:24:08;;;;;;;4.22;3.28;;;;;;;5.94;100.00;100456.66;5127254;27;20182;-67
2024/03/12 02:26:37;;;;;;;5.88;3.78;;;;;;;5.89;100.00;100449.13;5122394;27;20213;-67
2024/03/12 02:29:07;;;;;;;5.32;2.72;;;;;;;5.79;100.00;100447.69;5128870;27;20244;-68
2024/03/12 02:31:37;;;;;;;5.13;4.53;;;;;;;5.60;100.00;100449.88;5135181;27;20187;-68
2024/03/12 02:34:06;;;;;;;4.38;3.97;;;;;;;5.70;100.00;100455.00;5137815;27;20276;-67
2024/03/12 02:36:36;;;;;;;5.70;3.60;;;;;;;5.88;100.00;100452.00;5132788;27;20331;-67
2024/03/12 02:39:07;;;;;;;18.50;2.80;;;;;;;5.96;100.00;100457.28;5132878;27;20721;-68
2024/03/12 02:41:36;;;;;;;5.63;3.03;;;;;;;5.67;100.00;100450.81;5131823;27;20209;-67
2024/03/12 02:44:06;;;;;;;5.75;4.30;;;;;;;5.63;100.00;100449.50;5129485;27;20194;-67
2024/03/12 02:46:35;;;;;;;6.78;4.80;;;;;;;5.65;100.00;100447.47;5124907;27;20191;-68
2024/03/12 02:49:04;;;;;;;10.93;3.20;;;;;;;5.81;100.00;100456.41;5130171;27;20667;-68
2024/03/12 02:51:33;;;;;;;3.70;3.40;;;;;;;5.84;100.00;100456.03;5135594;27;20670;-68
2024/03/12 02:54:04;;;;;;;3.40;2.75;;;;;;;5.91;100.00;100457.00;5123943;27;20197;-68
2024/03/12 02:56:35;;;;;;;3.95;3.30;;;;;;;5.85;100.00;100457.72;5131997;27;20685;-69
2024/03/12 02:59:04;;;;;;;5.15;3.58;;;;;;;5.94;100.00;100462.00;5135595;27;20210;-68
2024/03/12 03:01:33;;;;;;;11.45;6.22;;;;;;;5.71;100.00;100461.19;5135418;27;20203;-69
2024/03/12 03:04:02;;;;;;;3.95;2.97;;;;;;;5.64;100.00;100461.06;5133196;27;20575;-68
2024/03/12 03:06:31;;;;;;;4.68;3.22;;;;;;;5.80;100.00;100466.31;5135788;27;20196;-68
2024/03/12 03:09:00;;;;;;;4.00;2.95;;;;;;;5.77;100.00;100460.44;5131760;27;20214;-67
2024/03/12 03:11:29;;;;;;;13.20;4.53;;;;;;;5.72;100.00;100460.16;5135737;27;20690;-67
2024/03/12 03:14:00;;;;;;;7.88;3.05;;;;;;;5.69;100.00;100462.22;5130532;27;20193;-67
2024/03/12 03:16:38;;;;;;;4.40;3.15;;;;;;;5.69;100.00;100464.88;5132865;27;20243;-69
2024/03/12 03:19:08;;;;;;;7.13;3.40;;;;;;;6.08;100.00;100469.25;5134937;27;20213;-68
2024/03/12 03:21:37;;;;;;;5.45;3.67;;;;;;;6.20;100.00;100462.41;5115539;27;20748;-68
2024/03/12 03:24:07;;;;;;;4.40;3.45;;;;;;;6.16;100.00;100466.47;5134907;27;20194;-68
2024/03/12 03:26:35;;;;;;;4.15;3.08;;;;;;;6.15;100.00;100464.81;5137688;27;20205;-68
2024/03/12 03:29:06;;;;;;;4.55;4.13;;;;;;;6.16;100.00;100466.47;5135301;27;20239;-68
2024/03/12 03:31:35;;;;;;;8.88;4.60;;;;;;;6.09;100.00;100470.94;5136305;27;20311;-68
2024/03/12 03:34:05;;;;;;;3.30;3.03;;;;;;;6.14;100.00;100473.91;5131786;27;20618;-68
2024/03/12 03:36:34;;;;;;;7.28;3.67;;;;;;;6.30;100.00;100471.03;5126642;27;20186;-68
2024/03/12 03:39:05;;;;;;;5.97;3.42;;;;;;;6.24;100.00;100476.31;5124687;27;20210;-68
2024/03/12 03:41:34;;;;;;;5.35;3.85;;;;;;;6.10;100.00;100477.94;5132579;27;20209;-68
2024/03/12 03:44:02;;;;;;;5.93;3.90;;;;;;;6.07;100.00;100483.69;5135181;27;20190;-68
2024/03/12 03:46:33;;;;;;;6.43;3.65;;;;;;;6.09;100.00;100479.00;5144765;27;20186;-68
2024/03/12 03:49:04;;;;;;;4.55;3.42;;;;;;;6.17;100.00;100478.06;5121400;27;20218;-69
2024/03/12 03:51:33;;;;;;;5.00;3.65;;;;;;;6.14;100.00;100481.97;5137086;27;20190;-68
2024/03/12 03:54:02;;;;;;;3.05;2.55;;;;;;;6.05;100.00;100485.75;5136068;27;20190;-67
2024/03/12 03:56:32;;;;;;;7.93;4.55;;;;;;;6.07;100.00;100486.38;5139588;27;20173;-69
2024/03/12 03:59:01;;;;;;;5.18;3.97;;;;;;;6.25;100.00;100489.56;5127914;27;20249;-68
2024/03/12 04:01:30;;;;;;;12.98;4.97;;;;;;;6.40;100.00;100490.41;5140367;27;20214;-68
2024/03/12 04:04:10;;;;;;;3.17;2.88;;;;;;;6.58;100.00;100491.91;5132916;27;20551;-67
2024/03/12 04:06:43;;;;;;;5.95;4.85;;;;;;;6.52;100.00;100497.00;5130381;27;20210;-67
2024/03/12 04:09:13;;;;;;;5.80;3.50;;;;;;;6.51;100.00;100498.00;5130060;27;20594;-68
2024/03/12 04:11:44;;;;;;;6.60;3.25;;;;;;;6.75;100.00;100494.19;5128355;27;20186;-68
2024/03/12 04:14:13;;;;;;;6.38;3.10;;;;;;;6.67;100.00;100501.53;5136368;27;20391;-69
2024/03/12 04:16:44;;;;;;;4.68;3.95;;;;;;;6.73;100.00;100501.59;5125200;27;20179;-69
2024/03/12 04:19:15;;;;;;;4.07;3.40;;;;;;;6.97;100.00;100508.56;5134266;27;20217;-68
2024/03/12 04:21:44;;;;;;;12.00;3.90;;;;;;;7.05;100.00;100500.38;5133660;27;20321;-68
2024/03/12 04:24:14;;;;;;;2.20;1.98;;;;;;;7.06;100.00;100518.19;5132777;27;20573;-67
2024/03/12 04:26:46;;;;;;;3.88;3.00;;;;;;;7.07;100.00;100514.44;5129057;27;20186;-67
2024/03/12 04:29:15;;;;;;;3.65;3.35;;;;;;;7.05;100.00;100515.69;5109998;27;20209;-68
2024/03/12 04:31:44;;;;;;;5.20;2.63;;;;;;;7.12;100.00;100512.03;5134604;27;20205;-68
2024/03/12 04:34:14;;;;;;;4.82;3.83;;;;;;;7.09;100.00;100523.19;5131620;28;20213;-68
2024/03/12 04:36:44;;;;;;;4.03;2.65;;;;;;;7.15;100.00;100517.06;5129158;28;20655;-68
2024/03/12 04:39:30;;;;;;;4.20;2.88;;;;;;;7.21;100.00;100520.84;5133376;27;20209;-67
2024/03/12 04:42:01;;;;;;;2.90;2.25;;;;;;;7.28;100.00;100519.06;5128124;27;20201;-68
2024/03/12 04:44:31;;;;;;;6.00;3.78;;;;;;;7.29;100.00;100524.25;5143258;27;20228;-67
2024/03/12 04:47:00;;;;;;;4.63;3.40;;;;;;;7.16;100.00;100525.97;5137554;27;20182;-65
2024/03/12 04:49:30;;;;;;;4.13;3.05;;;;;;;7.15;100.00;100524.28;5135026;27;20213;-67
2024/03/12 04:52:00;;;;;;;4.85;3.65;;;;;;;7.30;100.00;100525.94;5132047;27;20213;-67
2024/03/12 04:54:29;;;;;;;3.25;2.47;;;;;;;7.27;100.00;100526.28;5139754;27;20646;-68
2024/03/12 04:56:58;;;;;;;6.88;2.75;;;;;;;7.21;100.00;100537.81;5136952;27;20189;-66
2024/03/12 04:59:27;;;;;;;3.35;3.05;;;;;;;7.08;100.00;100534.97;5144095;27;20210;-69
2024/03/12 05:01:59;;;;;;;2.72;2.00;;;;;;;6.86;100.00;100527.84;5142402;27;20191;-68
2024/03/12 05:04:29;;;;;;;4.95;3.70;;;;;;;6.68;100.00;100532.78;5141445;27;20250;-68
2024/03/12 05:06:58;;;;;;;5.03;3.42;;;;;;;6.64;100.00;100539.53;5148283;27;20700;-66
2024/03/12 05:09:28;;;;;;;3.38;2.30;;;;;;;6.67;100.00;100545.41;5138465;27;20227;-68
2024/03/12 05:11:57;;;;;;;9.63;3.53;;;;;;;6.94;100.00;100531.28;5141206;27;20194;-67
2024/03/12 05:14:26;;;;;;;7.57;4.05;;;;;;;7.03;100.00;100539.22;5143092;27;20293;-68
2024/03/12 05:16:56;;;;;;;6.72;3.25;;;;;;;6.89;100.00;100549.00;5143220;27;20220;-68
2024/03/12 05:19:26;;;;;;;3.95;2.40;;;;;;;6.88;100.00;100550.00;5129024;27;20308;-69
2024/03/12 05:21:56;;;;;;;5.32;3.75;;;;;;;6.64;100.00;100552.97;5144500;27;20198;-69
2024/03/12 05:24:25;;;;;;;7.45;5.00;;;;;;;6.89;100.00;100549.81;5144040;27;20210;-69
2024/03/12 05:26:54;;;;;;;4.20;3.10;;;;;;;6.90;100.00;100554.19;5146291;27;20269;-69
2024/03/12 05:29:33;;;;;;;6.85;4.28;;;;;;;6.86;100.00;100557.44;5141761;27;20229;-68
2024/03/12 05:32:17;;;;;;;6.40;3.03;;;;;;;7.09;100.00;100555.47;5131340;27;20643;-68
2024/03/12 05:34:47;;;;;;;4.88;3.80;;;;;;;7.09;100.00;100552.78;5131526;27;20652;-67
2024/03/12 05:37:29;;;;;;;8.63;3.70;;;;;;;7.21;100.00;100558.53;5127821;27;20272;-68
2024/03/12 05:40:12;;;;;;;3.17;2.97;;;;;;;7.14;100.00;100558.44;5136509;27;20581;-69
2024/03/12 05:48:16;;;;;;;5.43;3.28;;;;;;;7.11;100.00;100564.19;5132260;27;20194;-68
2024/03/12 05:50:50;;;;;;;5.43;4.93;;;;;;;7.21;100.00;100563.91;5109424;28;20233;-68
2024/03/12 05:53:21;;;;;;;5.35;4.00;;;;;;;7.15;100.00;100570.88;5135433;27;20682;-68
2024/03/12 05:55:50;;;;;;;5.35;2.92;;;;;;;7.06;100.00;100572.00;5132478;27;20563;-69
2024/03/12 05:58:19;;;;;;;5.30;3.65;;;;;;;7.24;100.00;100575.13;5139478;27;20231;-68
2024/03/12 06:00:48;;;;;;;6.63;3.67;;;;;;;7.04;100.00;100573.19;5132209;27;20532;-69
2024/03/12 06:03:17;;;;;;;5.93;3.67;;;;;;;7.12;100.00;100576.59;5134441;27;20224;-67
2024/03/12 06:05:46;;;;;;;4.57;4.15;;;;;;;7.10;100.00;100581.34;5133555;27;20190;-68
2024/03/12 06:08:15;;;;;;;4.68;2.85;;;;;;;7.03;100.00;100587.66;5133472;27;20191;-68
2024/03/12 06:10:46;;;;;;;4.72;2.30;;;;;;;7.21;100.00;100586.25;5137576;27;20206;-67
2024/03/12 06:13:14;;;;;;;3.05;2.10;;;;;;;7.34;100.00;100594.50;5139404;27;20209;-68
2024/03/12 06:15:44;;;;;;;6.32;3.58;;;;;;;7.37;100.00;100596.81;5139262;27;20186;-69
2024/03/12 06:18:13;;;;;;;2.05;1.65;;;;;;;7.50;100.00;100598.84;5140750;27;20190;-69
2024/03/12 06:20:46;;;;;;;3.60;3.13;;;;;;;7.57;100.00;100598.91;5137472;27;20210;-70
2024/03/12 06:23:15;;;;;;;6.10;2.20;;;;;;;7.61;100.00;100600.19;5140346;27;20743;-69
2024/03/12 06:25:46;;;;;;;3.65;2.78;;;;;;;7.74;100.00;100603.88;5141776;27;20204;-70
2024/03/12 06:28:16;;;;;;;4.32;2.88;;;;;;;7.82;100.00;100600.22;5142729;27;20216;-70
2024/03/12 06:30:45;;;;;;;19.20;2.45;;;;;;;7.88;100.00;100604.84;5139688;27;20206;-70
2024/03/12 06:33:17;;;;;;;5.22;3.00;;;;;;;7.94;100.00;100604.06;5141225;27;20221;-69
2024/03/12 06:35:47;;;;;;;5.65;3.50;;;;;;;8.16;100.00;100611.13;5139227;27;20231;-68
2024/03/12 06:38:20;;;;;;;4.25;3.03;;;;;;;8.38;100.00;100611.13;5144793;27;20277;-69
2024/03/12 06:40:50;;;;;;;3.58;2.97;;;;;;;8.51;100.00;100608.56;5125434;27;20186;-69
2024/03/12 06:43:21;;;;;;;2.55;2.00;;;;;;;8.54;100.00;100613.56;5135653;27;20212;-69
2024/03/12 06:45:50;;;;;;;5.13;2.75;;;;;;;8.75;99.03;100618.91;5135720;27;20231;-69
2024/03/12 06:48:20;;;;;;;8.23;3.63;;;;;;;8.94;97.87;100623.59;5132063;27;20603;-68
2024/03/12 06:50:54;;;;;;;3.45;2.83;;;;;;;9.18;96.29;100618.75;5132544;27;20652;-70
2024/03/12 06:53:25;;;;;;;3.22;2.97;;;;;;;9.25;95.50;100627.69;5135000;27;20227;-68
2024/03/12 06:55:57;;;;;;;5.88;3.60;;;;;;;9.39;94.64;100626.75;5134135;27;20186;-68
2024/03/12 06:58:27;;;;;;;3.67;3.00;;;;;;;9.45;93.96;100625.94;5132041;27;20198;-67
2024/03/12 07:00:57;;;;;;;6.03;3.00;;;;;;;9.52;93.53;100627.66;5130107;27;20277;-70
2024/03/12 07:03:29;;;;;;;3.53;3.22;;;;;;;9.65;91.26;100626.84;5133988;27;20198;-68
2024/03/12 07:05:58;;;;;;;2.63;1.70;;;;;;;9.78;90.79;100631.47;5122670;27;20608;-69
2024/03/12 07:08:27;;;;;;;6.60;2.83;;;;;;;9.88;90.21;100632.72;5123907;27;20183;-69
2024/03/12 07:10:57;;;;;;;6.47;3.00;;;;;;;10.12;87.90;100634.03;5132260;27;20435;-70
2024/03/12 07:13:27;;;;;;;2.70;2.43;;;;;;;10.20;87.45;100641.16;5134883;27;20420;-70
2024/03/12 07:15:56;;;;;;;7.20;3.00;;;;;;;10.41;85.01;100643.66;5127646;27;20419;-70
2024/03/12 07:18:25;;;;;;;3.10;2.80;;;;;;;10.38;84.64;100650.34;5114798;27;20964;-69
2024/03/12 07:20:54;;;;;;;2.73;1.80;;;;;;;10.24;84.94;100647.81;5129713;27;20420;-69
2024/03/12 07:23:24;;;;;;;3.20;2.00;;;;;;;10.42;84.53;100656.16;5137229;27;20423;-70
2024/03/12 07:25:55;;;;;;;2.63;2.00;;;;;;;10.55;82.83;100653.47;5133834;27;20423;-70
2024/03/12 07:28:26;;;;;;;2.47;2.23;;;;;;;10.56;82.00;100663.25;5133395;27;20524;-67
2024/03/12 07:30:56;;;;;;;4.07;2.83;;;;;;;10.58;82.32;100655.75;5134281;27;20768;-68
2024/03/12 07:33:25;;;;;;;2.50;1.73;;;;;;;10.56;82.02;100657.81;5133811;27;20419;-69
2024/03/12 07:35:54;;;;;;;3.20;2.30;;;;;;;10.86;80.77;100661.78;5134617;27;20427;-68
2024/03/12 07:38:24;;;;;;;3.37;2.37;;;;;;;11.05;79.58;100664.66;5115616;27;20435;-68
2024/03/12 07:40:53;;;;;;;2.47;2.27;;;;;;;11.16;78.83;100666.75;5128523;27;20427;-69
2024/03/12 07:43:22;;;;;;;4.87;2.63;;;;;;;11.04;79.01;100665.72;5133168;27;20455;-69
2024/03/12 07:45:54;;;;;;;8.60;2.97;;;;;;;11.23;78.56;100676.50;5134239;27;20443;-69
2024/03/12 07:48:23;;;;;;;8.77;3.67;;;;;;;11.20;78.50;100668.81;5134694;27;20956;-69
2024/03/12 07:50:52;;;;;;;7.37;3.67;;;;;;;11.20;77.76;100676.09;5134034;27;20431;-69
2024/03/12 07:53:22;;;;;;;4.73;3.30;;;;;;;11.35;77.29;100674.00;5135530;27;20431;-69
2024/03/12 07:55:53;;;;;;;3.80;3.03;;;;;;;11.17;77.78;100671.97;5130379;27;20557;-69
2024/03/12 07:58:22;;;;;;;6.23;3.30;;;;;;;11.28;76.78;100674.00;5117565;27;20422;-67
2024/03/12 08:00:54;;;;;;;6.53;2.40;;;;;;;11.10;77.57;100681.13;5140680;27;20435;-68
2024/03/12 08:03:23;;;;;;;3.40;2.90;;;;;;;11.19;78.29;100679.84;5133022;27;20410;-68
2024/03/12 08:05:53;;;;;;;8.03;2.63;;;;;;;11.15;77.64;100679.44;5129345;27;20460;-69
2024/03/12 08:08:22;;;;;;;4.77;3.10;;;;;;;11.23;77.28;100675.69;5130241;27;20440;-69
2024/03/12 08:10:51;;;;;;;4.97;3.73;;;;;;;11.37;77.35;100677.34;5134177;27;20838;-70
2024/03/12 08:13:21;;;;;;;4.40;2.83;;;;;;;11.53;75.78;100681.44;5132223;27;20423;-68
2024/03/12 08:15:51;;;;;;;6.67;2.23;;;;;;;11.54;75.98;100681.22;5127632;27;20450;-68
2024/03/12 08:18:21;;;;;;;3.67;3.37;;;;;;;11.60;75.09;100676.84;5116170;27;20808;-68
2024/03/12 08:20:52;;;;;;;5.60;2.87;;;;;;;11.54;74.97;100683.94;5131391;27;20431;-68
2024/03/12 08:23:20;;;;;;;6.87;3.47;;;;;;;11.59;75.16;100686.00;5133751;27;20426;-68
2024/03/12 08:25:50;;;;;;;3.13;2.47;;;;;;;11.66;75.43;100682.25;5123486;27;20512;-68
2024/03/12 08:28:30;;;;;;;5.10;2.50;;;;;;;11.82;74.09;100680.09;5114121;27;20431;-68
2024/03/12 08:31:02;;;;;;;4.40;3.27;;;;;;;11.77;73.66;100681.59;5137254;27;20393;-70
2024/03/12 08:33:43;;;;;;;3.87;3.27;;;;;;;11.94;73.26;100683.81;5134127;27;20413;-69
2024/03/12 08:36:13;;;;;;;4.37;2.60;;;;;;;11.94;72.91;100683.81;5136058;28;20438;-68
2024/03/12 08:38:42;;;;;;;5.13;3.47;;;;;;;11.91;73.32;100686.97;5140520;27;20462;-70
2024/03/12 08:41:11;;;;;;;9.40;3.17;;;;;;;12.01;72.91;100684.59;5133210;28;20427;-69
2024/03/12 08:43:40;;;;;;;4.73;2.40;;;;;;;12.08;73.08;100685.41;5139449;27;20413;-71
2024/03/12 08:46:11;;;;;;;5.43;4.50;;;;;;;12.10;72.36;100683.31;5134371;28;20854;-70
2024/03/12 08:48:40;;;;;;;6.03;3.73;;;;;;;12.36;71.92;100688.56;5139080;28;20868;-70
2024/03/12 08:51:10;;;;;;;3.83;3.53;;;;;;;12.20;71.37;100689.06;5138821;28;20432;-70
2024/03/12 08:53:39;;;;;;;4.30;2.97;;;;;;;12.42;70.82;100690.41;5135749;28;20398;-69
2024/03/12 08:56:09;;;;;;;3.37;2.57;;;;;;;12.49;70.24;100688.47;5135601;28;20419;-70
2024/03/12 08:58:38;;;;;;;3.33;3.03;;;;;;;12.44;69.95;100691.00;5135328;28;20536;-69
2024/03/12 09:01:08;;;;;;;3.70;2.60;;;;;;;12.54;70.06;100695.94;5128616;27;20439;-70
2024/03/12 09:03:40;;;;;;;4.20;2.70;;;;;;;12.20;70.70;100695.34;5130754;27;20873;-71
2024/03/12 09:06:14;;;;;;;3.60;1.97;;;;;;;12.52;70.04;100695.34;5115919;28;20485;-69
2024/03/12 09:08:43;;;;;;;6.00;3.07;;;;;;;12.63;68.77;100700.09;5119498;27;20408;-68
2024/03/12 09:11:16;;;;;;;4.97;2.83;;;;;;;12.85;68.19;100697.81;5129251;27;20399;-70
2024/03/12 09:13:46;;;;;;;3.93;2.63;;;;;;;13.01;67.22;100706.25;5123271;28;20526;-70
2024/03/12 09:16:15;;;;;;;6.40;4.27;;;;;;;12.97;66.76;100706.91;5129564;28;20781;-68
2024/03/12 09:18:47;;;;;;;6.37;3.70;;;;;;;12.86;66.80;100703.03;5132839;28;20483;-68
2024/03/12 09:21:17;;;;;;;4.50;3.10;;;;;;;12.80;67.07;100705.78;5121592;28;20957;-69
2024/03/12 09:23:47;;;;;;;3.20;2.90;;;;;;;12.84;66.92;100707.00;5129233;27;20434;-70
2024/03/12 09:26:29;;;;;;;3.10;2.57;;;;;;;12.89;66.78;100708.00;5138485;27;20459;-69
2024/03/12 09:28:59;;;;;;;3.73;2.13;;;;;;;12.85;66.40;100709.50;5137966;27;20456;-69
2024/03/12 09:31:31;;;;;;;3.70;3.20;;;;;;;12.86;67.01;100707.63;5125414;27;20424;-70
2024/03/12 09:34:01;;;;;;;2.60;2.33;;;;;;;12.69;67.56;100704.63;5138478;27;20733;-70
2024/03/12 09:36:32;;;;;;;2.47;2.00;;;;;;;13.03;66.82;100706.00;5129081;27;20452;-69
2024/03/12 09:39:01;;;;;;;2.10;1.90;;;;;;;13.26;65.61;100705.41;5133346;27;20448;-70
2024/03/12 09:41:31;;;;;;;4.70;2.43;;;;;;;13.43;64.57;100706.50;5135426;27;20458;-68
2024/03/12 09:44:01;;;;;;;3.30;2.30;;;;;;;13.80;63.29;100708.16;5137666;27;20771;-69
2024/03/12 09:46:36;;;;;;;4.63;2.63;;;;;;;13.91;62.07;100709.28;5132215;27;20472;-70
2024/03/12 09:49:12;;;;;;;1.80;1.63;;;;;;;14.02;60.80;100708.50;5132973;27;20539;-70
2024/03/12 09:51:41;;;;;;;2.83;1.93;;;;;;;14.02;60.31;100705.78;5135616;27;20769;-68
2024/03/12 09:54:11;;;;;;;8.27;2.10;;;;;;;14.17;60.84;100717.09;5136482;27;20420;-69
2024/03/12 09:56:41;;;;;;;3.63;2.67;;;;;;;13.94;59.89;100709.63;5127239;27;20421;-69
2024/03/12 09:59:10;;;;;;;3.80;2.20;;;;;;;14.15;60.49;100711.06;5131878;27;20866;-68
2024/03/12 10:01:39;;;;;;;8.13;2.80;;;;;;;14.13;60.62;100715.91;5133026;27;20804;-68
2024/03/12 10:04:10;;;;;;;3.10;2.50;;;;;;;14.04;60.03;100714.53;5123783;27;20460;-68
2024/03/12 10:06:39;;;;;;;3.67;2.77;;;;;;;13.99;60.02;100710.88;5140193;27;20505;-68
2024/03/12 10:09:10;;;;;;;4.20;3.80;;;;;;;13.85;60.57;100712.91;5127127;27;20437;-69
2024/03/12 10:11:44;;;;;;;8.73;1.57;;;;;;;13.60;61.63;100717.63;5125828;27;20470;-68
2024/03/12 10:14:17;;;;;;;2.47;2.27;;;;;;;13.89;60.77;100723.09;5131351;27;20501;-69
2024/03/12 10:16:46;;;;;;;3.00;2.13;;;;;;;14.09;59.98;100720.13;5130283;27;20413;-68
2024/03/12 10:19:18;;;;;;;3.17;2.40;;;;;;;14.05;59.71;100726.25;5120615;27;20447;-70
2024/03/12 10:21:49;;;;;;;2.23;2.03;;;;;;;13.77;60.60;100724.09;5135008;27;20414;-70
2024/03/12 10:24:21;;;;;;;3.83;2.13;;;;;;;13.92;60.97;100727.25;5127670;27;20797;-66
2024/03/12 10:26:50;;;;;;;4.80;1.90;;;;;;;13.89;60.00;100730.44;5119629;27;20456;-68
2024/03/12 10:29:20;;;;;;;3.30;1.90;;;;;;;14.00;59.59;100732.38;5112919;27;20463;-68
2024/03/12 10:31:50;;;;;;;2.23;1.87;;;;;;;13.97;59.94;100732.03;5117210;27;20479;-69
2024/03/12 10:34:21;;;;;;;4.57;2.00;;;;;;;14.00;59.49;100724.22;5126647;27;20690;-68
2024/03/12 10:36:51;;;;;;;4.10;2.17;;;;;;;13.86;59.71;100722.72;5126812;27;20406;-69
2024/03/12 10:39:32;;;;;;;4.50;2.00;;;;;;;13.73;60.77;100725.63;5117193;27;20973;-69
2024/03/12 10:42:03;;;;;;;4.50;2.40;;;;;;;14.01;60.21;100730.50;5134987;27;20419;-69
2024/03/12 10:44:36;;;;;;;3.30;2.67;;;;;;;13.83;60.20;100724.03;5130007;27;20410;-69
2024/03/12 10:47:07;;;;;;;7.47;3.30;;;;;;;14.03;59.88;100729.22;5138063;27;20453;-68
2024/03/12 10:49:37;;;;;;;4.73;2.30;;;;;;;14.12;59.30;100727.00;5150878;27;20430;-70
2024/03/12 10:52:08;;;;;;;4.63;2.47;;;;;;;14.43;58.23;100725.97;5138427;27;20580;-70
2024/03/12 10:54:40;;;;;;;1.57;1.20;;;;;;;14.34;58.54;100726.28;5138392;27;20884;-69
2024/03/12 10:57:13;;;;;;;1.83;1.30;;;;;;;14.65;58.31;100727.13;5130508;27;20447;-69
2024/03/12 10:59:43;;;;;;;3.67;2.10;;;;;;;14.71;57.10;100727.03;5110420;27;20430;-69
2024/03/12 11:02:13;;;;;;;6.77;3.30;;;;;;;14.76;56.85;100726.34;5135098;27;20821;-70
2024/03/12 11:04:48;;;;;;;2.27;1.80;;;;;;;14.81;55.90;100725.63;5133352;27;20788;-68
2024/03/12 11:07:18;;;;;;;3.50;2.03;;;;;;;14.85;56.22;100718.66;5110902;28;20559;-69
2024/03/12 11:09:47;;;;;;;1.57;1.17;;;;;;;15.07;55.93;100723.28;5129089;27;20505;-70
2024/03/12 11:12:19;;;;;;;2.83;1.57;;;;;;;15.14;54.92;100728.63;5128282;27;20409;-69
2024/03/12 11:14:50;;;;;;;1.90;1.10;;;;;;;15.28;53.90;100726.50;5132973;27;20424;-69
2024/03/12 11:17:27;;;;;;;2.07;1.83;;;;;;;15.36;53.59;100723.41;5134485;27;20391;-71
2024/03/12 11:20:00;;;;;;;1.70;1.20;;;;;;;15.20;52.35;100728.50;5130969;27;20438;-68
2024/03/12 11:22:32;;;;;;;1.93;1.03;;;;;;;15.00;53.31;100724.47;5126130;27;20424;-69
2024/03/12 11:25:04;;;;;;;1.30;1.20;;;;;;;15.23;53.01;100722.59;5109286;27;20456;-70
2024/03/12 11:27:36;;;;;;;3.10;2.60;;;;;;;15.40;52.79;100719.13;5131152;27;20651;-70
2024/03/12 11:30:08;;;;;;;2.03;1.40;;;;;;;15.18;52.72;100732.53;5126191;27;20444;-69
2024/03/12 11:32:41;;;;;;;1.77;1.60;;;;;;;15.34;52.46;100731.00;5123738;27;20436;-68
2024/03/12 11:35:30;;;;;;;2.30;1.93;;;;;;;15.17;52.23;100726.25;5134493;27;20410;-69
2024/03/12 11:38:05;;;;;;;2.63;2.20;;;;;;;15.60;51.47;100727.81;5131939;27;20828;-69
2024/03/12 11:40:50;;;;;;;2.67;2.17;;;;;;;15.70;51.36;100719.00;5127200;27;20417;-70
2024/03/12 11:43:35;;;;;;;4.60;1.70;;;;;;;16.07;50.67;100720.38;5133995;27;20438;-70
2024/03/12 11:46:06;;;;;;;2.80;1.83;;;;;;;16.03;50.47;100724.63;5132895;27;20468;-70